sensor_id;sensor_type;location;lat;lon;timestamp;temperature;humidity
46319;DHT22;32042;50.916;2.926;2023-05-20T00:02:14;11.00;99.90
46319;DHT22;32042;50.916;2.926;2023-05-20T00:04:40;11.00;99.90
46319;DHT22;32042;50.916;2.926;2023-05-20T00:07:06;11.00;99.90
46319;DHT22;32042;50.916;2.926;2023-05-20T00:09:32;11.00;99.90
46319;DHT22;32042;50.916;2.926;2023-05-20T00:11:58;11.10;99.90
46319;DHT22;32042;50.916;2.926;2023-05-20T00:14:23;11.00;99.90
46319;DHT22;32042;50.916;2.926;2023-05-20T00:16:49;11.00;99.90
46319;DHT22;32042;50.916;2.926;2023-05-20T00:19:15;11.00;99.90
46319;DHT22;32042;50.916;2.926;2023-05-20T00:21:41;11.00;99.90
46319;DHT22;32042;50.916;2.926;2023-05-20T00:24:06;11.00;99.90
46319;DHT22;32042;50.916;2.926;2023-05-20T00:26:32;11.00;99.90
46319;DHT22;32042;50.916;2.926;2023-05-20T00:28:58;11.00;99.90
46319;DHT22;32042;50.916;2.926;2023-05-20T00:31:23;10.90;99.90
46319;DHT22;32042;50.916;2.926;2023-05-20T00:33:49;10.90;99.90
46319;DHT22;32042;50.916;2.926;2023-05-20T00:36:15;10.90;99.90
46319;DHT22;32042;50.916;2.926;2023-05-20T00:38:41;10.90;99.90
46319;DHT22;32042;50.916;2.926;2023-05-20T00:41:07;10.90;99.90
46319;DHT22;32042;50.916;2.926;2023-05-20T00:43:32;10.90;99.90
46319;DHT22;32042;50.916;2.926;2023-05-20T00:45:59;10.90;99.90
46319;DHT22;32042;50.916;2.926;2023-05-20T00:48:28;10.90;99.90
46319;DHT22;32042;50.916;2.926;2023-05-20T00:50:57;10.90;99.90
46319;DHT22;32042;50.916;2.926;2023-05-20T00:53:23;10.80;99.90
46319;DHT22;32042;50.916;2.926;2023-05-20T00:55:49;10.80;99.90
46319;DHT22;32042;50.916;2.926;2023-05-20T00:58:15;10.80;99.90
46319;DHT22;32042;50.916;2.926;2023-05-20T01:00:41;10.80;99.90
46319;DHT22;32042;50.916;2.926;2023-05-20T01:03:07;10.80;99.90
46319;DHT22;32042;50.916;2.926;2023-05-20T01:05:33;10.80;99.90
46319;DHT22;32042;50.916;2.926;2023-05-20T01:07:59;10.80;99.90
46319;DHT22;32042;50.916;2.926;2023-05-20T01:10:26;10.80;99.90
46319;DHT22;32042;50.916;2.926;2023-05-20T01:12:57;10.80;99.90
46319;DHT22;32042;50.916;2.926;2023-05-20T01:15:26;10.80;99.90
46319;DHT22;32042;50.916;2.926;2023-05-20T01:18:00;10.80;99.90
46319;DHT22;32042;50.916;2.926;2023-05-20T01:20:28;10.80;99.90
46319;DHT22;32042;50.916;2.926;2023-05-20T01:22:56;10.80;99.90
46319;DHT22;32042;50.916;2.926;2023-05-20T01:25:23;10.80;99.90
46319;DHT22;32042;50.916;2.926;2023-05-20T01:27:51;10.80;99.90
46319;DHT22;32042;50.916;2.926;2023-05-20T01:30:17;10.90;99.90
46319;DHT22;32042;50.916;2.926;2023-05-20T01:32:49;10.90;99.90
46319;DHT22;32042;50.916;2.926;2023-05-20T01:35:17;10.90;99.90
46319;DHT22;32042;50.916;2.926;2023-05-20T01:37:43;11.00;99.90
46319;DHT22;32042;50.916;2.926;2023-05-20T01:40:13;11.00;99.90
46319;DHT22;32042;50.916;2.926;2023-05-20T01:42:42;11.00;99.90
46319;DHT22;32042;50.916;2.926;2023-05-20T01:45:08;11.00;99.90
46319;DHT22;32042;50.916;2.926;2023-05-20T01:47:34;11.00;99.90
46319;DHT22;32042;50.916;2.926;2023-05-20T01:50:00;11.00;99.90
46319;DHT22;32042;50.916;2.926;2023-05-20T01:52:26;11.00;99.90
46319;DHT22;32042;50.916;2.926;2023-05-20T01:54:51;11.00;99.90
46319;DHT22;32042;50.916;2.926;2023-05-20T01:57:21;10.90;99.90
46319;DHT22;32042;50.916;2.926;2023-05-20T01:59:47;10.90;99.90
46319;DHT22;32042;50.916;2.926;2023-05-20T02:02:13;10.90;99.90
46319;DHT22;32042;50.916;2.926;2023-05-20T02:04:39;10.90;99.90
46319;DHT22;32042;50.916;2.926;2023-05-20T02:07:06;10.90;99.90
46319;DHT22;32042;50.916;2.926;2023-05-20T02:09:32;10.90;99.90
46319;DHT22;32042;50.916;2.926;2023-05-20T02:11:58;10.90;99.90
46319;DHT22;32042;50.916;2.926;2023-05-20T02:14:24;10.90;99.90
46319;DHT22;32042;50.916;2.926;2023-05-20T02:16:49;10.90;99.90
46319;DHT22;32042;50.916;2.926;2023-05-20T02:19:15;10.80;99.90
46319;DHT22;32042;50.916;2.926;2023-05-20T02:21:48;10.80;99.90
46319;DHT22;32042;50.916;2.926;2023-05-20T02:24:14;10.80;99.90
46319;DHT22;32042;50.916;2.926;2023-05-20T02:26:40;10.80;99.90
46319;DHT22;32042;50.916;2.926;2023-05-20T02:29:06;10.80;99.90
46319;DHT22;32042;50.916;2.926;2023-05-20T02:31:33;10.80;99.90
46319;DHT22;32042;50.916;2.926;2023-05-20T02:34:00;10.80;99.90
46319;DHT22;32042;50.916;2.926;2023-05-20T02:36:27;10.80;99.90
46319;DHT22;32042;50.916;2.926;2023-05-20T02:38:54;10.80;99.90
46319;DHT22;32042;50.916;2.926;2023-05-20T02:41:22;10.80;99.90
46319;DHT22;32042;50.916;2.926;2023-05-20T02:43:49;10.80;99.90
46319;DHT22;32042;50.916;2.926;2023-05-20T02:46:16;10.80;99.90
46319;DHT22;32042;50.916;2.926;2023-05-20T02:48:45;10.80;99.90
46319;DHT22;32042;50.916;2.926;2023-05-20T02:51:12;10.80;99.90
46319;DHT22;32042;50.916;2.926;2023-05-20T02:53:38;10.80;99.90
46319;DHT22;32042;50.916;2.926;2023-05-20T02:56:04;10.80;99.90
46319;DHT22;32042;50.916;2.926;2023-05-20T02:58:30;10.80;99.90
46319;DHT22;32042;50.916;2.926;2023-05-20T03:00:55;10.80;99.90
46319;DHT22;32042;50.916;2.926;2023-05-20T03:03:24;10.70;99.90
46319;DHT22;32042;50.916;2.926;2023-05-20T03:05:51;10.70;99.90
46319;DHT22;32042;50.916;2.926;2023-05-20T03:08:19;10.70;99.90
46319;DHT22;32042;50.916;2.926;2023-05-20T03:10:44;10.70;99.90
46319;DHT22;32042;50.916;2.926;2023-05-20T03:13:10;10.70;99.90
46319;DHT22;32042;50.916;2.926;2023-05-20T03:15:39;10.70;99.90
46319;DHT22;32042;50.916;2.926;2023-05-20T03:18:05;10.70;99.90
46319;DHT22;32042;50.916;2.926;2023-05-20T03:20:33;10.60;99.90
46319;DHT22;32042;50.916;2.926;2023-05-20T03:23:01;10.60;99.90
46319;DHT22;32042;50.916;2.926;2023-05-20T03:25:27;10.60;99.90
46319;DHT22;32042;50.916;2.926;2023-05-20T03:27:53;10.60;99.90
46319;DHT22;32042;50.916;2.926;2023-05-20T03:30:19;10.60;99.90
46319;DHT22;32042;50.916;2.926;2023-05-20T03:32:45;10.60;99.90
46319;DHT22;32042;50.916;2.926;2023-05-20T03:35:11;10.60;99.90
46319;DHT22;32042;50.916;2.926;2023-05-20T03:37:37;10.50;99.90
46319;DHT22;32042;50.916;2.926;2023-05-20T03:40:03;10.50;99.90
46319;DHT22;32042;50.916;2.926;2023-05-20T03:42:32;10.50;99.90
46319;DHT22;32042;50.916;2.926;2023-05-20T03:44:58;10.50;99.90
46319;DHT22;32042;50.916;2.926;2023-05-20T03:47:27;10.50;99.90
46319;DHT22;32042;50.916;2.926;2023-05-20T03:49:53;10.50;99.90
46319;DHT22;32042;50.916;2.926;2023-05-20T03:52:19;10.50;99.90
46319;DHT22;32042;50.916;2.926;2023-05-20T03:54:45;10.50;99.90
46319;DHT22;32042;50.916;2.926;2023-05-20T03:57:11;10.50;99.90
46319;DHT22;32042;50.916;2.926;2023-05-20T03:59:37;10.50;99.90
46319;DHT22;32042;50.916;2.926;2023-05-20T04:02:04;10.50;99.90
46319;DHT22;32042;50.916;2.926;2023-05-20T04:04:30;10.50;99.90
46319;DHT22;32042;50.916;2.926;2023-05-20T04:06:57;10.50;99.90
46319;DHT22;32042;50.916;2.926;2023-05-20T04:09:25;10.40;99.90
46319;DHT22;32042;50.916;2.926;2023-05-20T04:11:51;10.50;99.90
46319;DHT22;32042;50.916;2.926;2023-05-20T04:14:17;10.50;99.90
46319;DHT22;32042;50.916;2.926;2023-05-20T04:16:43;10.50;99.90
46319;DHT22;32042;50.916;2.926;2023-05-20T04:19:10;10.50;99.90
46319;DHT22;32042;50.916;2.926;2023-05-20T04:21:36;10.50;99.90
46319;DHT22;32042;50.916;2.926;2023-05-20T04:24:02;10.50;99.90
46319;DHT22;32042;50.916;2.926;2023-05-20T04:26:27;10.50;99.90
46319;DHT22;32042;50.916;2.926;2023-05-20T04:28:54;10.60;99.90
46319;DHT22;32042;50.916;2.926;2023-05-20T04:31:24;10.60;99.90
46319;DHT22;32042;50.916;2.926;2023-05-20T04:33:53;10.60;99.90
46319;DHT22;32042;50.916;2.926;2023-05-20T04:36:19;10.60;99.90
46319;DHT22;32042;50.916;2.926;2023-05-20T04:38:45;10.60;99.90
46319;DHT22;32042;50.916;2.926;2023-05-20T04:41:11;10.70;99.90
46319;DHT22;32042;50.916;2.926;2023-05-20T04:43:37;10.70;99.90
46319;DHT22;32042;50.916;2.926;2023-05-20T04:46:04;10.70;99.90
46319;DHT22;32042;50.916;2.926;2023-05-20T04:48:31;10.80;99.90
46319;DHT22;32042;50.916;2.926;2023-05-20T04:50:57;10.80;99.90
46319;DHT22;32042;50.916;2.926;2023-05-20T04:53:22;10.90;99.90
46319;DHT22;32042;50.916;2.926;2023-05-20T04:55:48;10.90;99.90
46319;DHT22;32042;50.916;2.926;2023-05-20T04:58:18;11.00;99.90
46319;DHT22;32042;50.916;2.926;2023-05-20T05:00:44;11.00;99.90
46319;DHT22;32042;50.916;2.926;2023-05-20T05:03:11;11.10;99.90
46319;DHT22;32042;50.916;2.926;2023-05-20T05:05:39;11.10;99.90
46319;DHT22;32042;50.916;2.926;2023-05-20T05:08:07;11.10;99.90
46319;DHT22;32042;50.916;2.926;2023-05-20T05:10:33;11.20;99.90
46319;DHT22;32042;50.916;2.926;2023-05-20T05:12:59;11.20;99.90
46319;DHT22;32042;50.916;2.926;2023-05-20T05:15:25;11.20;99.90
46319;DHT22;32042;50.916;2.926;2023-05-20T05:17:51;11.30;99.90
46319;DHT22;32042;50.916;2.926;2023-05-20T05:20:17;11.40;99.90
46319;DHT22;32042;50.916;2.926;2023-05-20T05:22:43;11.40;99.90
46319;DHT22;32042;50.916;2.926;2023-05-20T05:25:10;11.40;99.90
46319;DHT22;32042;50.916;2.926;2023-05-20T05:27:36;11.50;99.90
46319;DHT22;32042;50.916;2.926;2023-05-20T05:30:03;11.50;99.90
46319;DHT22;32042;50.916;2.926;2023-05-20T05:32:29;11.60;99.90
46319;DHT22;32042;50.916;2.926;2023-05-20T05:34:54;11.60;99.90
46319;DHT22;32042;50.916;2.926;2023-05-20T05:37:20;11.70;99.90
46319;DHT22;32042;50.916;2.926;2023-05-20T05:39:46;11.80;99.90
46319;DHT22;32042;50.916;2.926;2023-05-20T05:42:12;11.80;99.90
46319;DHT22;32042;50.916;2.926;2023-05-20T05:44:38;11.90;99.90
46319;DHT22;32042;50.916;2.926;2023-05-20T05:47:04;11.90;99.90
46319;DHT22;32042;50.916;2.926;2023-05-20T05:49:31;12.00;99.90
46319;DHT22;32042;50.916;2.926;2023-05-20T05:51:57;12.10;99.90
46319;DHT22;32042;50.916;2.926;2023-05-20T05:54:23;12.10;99.90
46319;DHT22;32042;50.916;2.926;2023-05-20T05:56:52;12.20;99.90
46319;DHT22;32042;50.916;2.926;2023-05-20T05:59:18;12.20;99.90
46319;DHT22;32042;50.916;2.926;2023-05-20T06:01:44;12.30;99.90
46319;DHT22;32042;50.916;2.926;2023-05-20T06:04:10;12.40;99.90
46319;DHT22;32042;50.916;2.926;2023-05-20T06:06:36;12.40;99.90
46319;DHT22;32042;50.916;2.926;2023-05-20T06:09:02;12.50;99.90
46319;DHT22;32042;50.916;2.926;2023-05-20T06:11:28;12.60;99.90
46319;DHT22;32042;50.916;2.926;2023-05-20T06:13:54;12.60;99.90
46319;DHT22;32042;50.916;2.926;2023-05-20T06:16:19;12.70;99.90
46319;DHT22;32042;50.916;2.926;2023-05-20T06:18:45;12.80;99.90
46319;DHT22;32042;50.916;2.926;2023-05-20T06:21:11;12.80;99.90
46319;DHT22;32042;50.916;2.926;2023-05-20T06:23:37;12.90;99.90
46319;DHT22;32042;50.916;2.926;2023-05-20T06:26:03;13.00;99.90
46319;DHT22;32042;50.916;2.926;2023-05-20T06:28:29;13.10;99.90
46319;DHT22;32042;50.916;2.926;2023-05-20T06:30:55;13.20;99.90
46319;DHT22;32042;50.916;2.926;2023-05-20T06:33:22;13.30;99.90
46319;DHT22;32042;50.916;2.926;2023-05-20T06:35:52;13.40;99.90
46319;DHT22;32042;50.916;2.926;2023-05-20T06:38:18;13.40;99.90
46319;DHT22;32042;50.916;2.926;2023-05-20T06:40:44;13.50;99.90
46319;DHT22;32042;50.916;2.926;2023-05-20T06:43:10;13.60;99.90
46319;DHT22;32042;50.916;2.926;2023-05-20T06:45:36;13.70;99.90
46319;DHT22;32042;50.916;2.926;2023-05-20T06:48:01;13.80;99.90
46319;DHT22;32042;50.916;2.926;2023-05-20T06:50:27;13.80;99.90
46319;DHT22;32042;50.916;2.926;2023-05-20T06:52:53;13.90;99.90
46319;DHT22;32042;50.916;2.926;2023-05-20T06:55:19;13.90;99.90
46319;DHT22;32042;50.916;2.926;2023-05-20T06:57:45;13.90;99.90
46319;DHT22;32042;50.916;2.926;2023-05-20T07:00:11;14.00;99.90
46319;DHT22;32042;50.916;2.926;2023-05-20T07:02:38;14.00;99.90
46319;DHT22;32042;50.916;2.926;2023-05-20T07:05:05;14.10;99.90
46319;DHT22;32042;50.916;2.926;2023-05-20T07:07:31;14.10;99.90
46319;DHT22;32042;50.916;2.926;2023-05-20T07:09:57;14.10;99.90
46319;DHT22;32042;50.916;2.926;2023-05-20T07:12:23;14.20;99.90
46319;DHT22;32042;50.916;2.926;2023-05-20T07:14:49;14.30;99.90
46319;DHT22;32042;50.916;2.926;2023-05-20T07:17:15;14.40;99.90
46319;DHT22;32042;50.916;2.926;2023-05-20T07:19:41;14.30;99.90
46319;DHT22;32042;50.916;2.926;2023-05-20T07:22:07;14.30;99.90
46319;DHT22;32042;50.916;2.926;2023-05-20T07:24:33;14.40;99.90
46319;DHT22;32042;50.916;2.926;2023-05-20T07:26:58;14.50;99.90
46319;DHT22;32042;50.916;2.926;2023-05-20T07:29:24;14.60;99.90
46319;DHT22;32042;50.916;2.926;2023-05-20T07:31:50;14.70;99.90
46319;DHT22;32042;50.916;2.926;2023-05-20T07:34:15;14.80;99.90
46319;DHT22;32042;50.916;2.926;2023-05-20T07:36:41;14.90;99.90
46319;DHT22;32042;50.916;2.926;2023-05-20T07:39:08;15.10;99.90
46319;DHT22;32042;50.916;2.926;2023-05-20T07:41:38;15.20;99.90
46319;DHT22;32042;50.916;2.926;2023-05-20T07:44:04;15.30;99.90
46319;DHT22;32042;50.916;2.926;2023-05-20T07:46:31;15.40;99.90
46319;DHT22;32042;50.916;2.926;2023-05-20T07:48:57;15.40;99.90
46319;DHT22;32042;50.916;2.926;2023-05-20T07:51:22;15.50;99.90
46319;DHT22;32042;50.916;2.926;2023-05-20T07:53:48;15.60;99.90
46319;DHT22;32042;50.916;2.926;2023-05-20T07:56:14;15.80;99.90
46319;DHT22;32042;50.916;2.926;2023-05-20T07:58:41;16.00;99.90
46319;DHT22;32042;50.916;2.926;2023-05-20T08:01:07;16.10;99.90
46319;DHT22;32042;50.916;2.926;2023-05-20T08:03:34;16.20;99.90
46319;DHT22;32042;50.916;2.926;2023-05-20T08:06:01;16.20;99.90
46319;DHT22;32042;50.916;2.926;2023-05-20T08:08:27;16.30;99.90
46319;DHT22;32042;50.916;2.926;2023-05-20T08:10:55;16.30;99.90
46319;DHT22;32042;50.916;2.926;2023-05-20T08:13:21;16.50;99.90
46319;DHT22;32042;50.916;2.926;2023-05-20T08:18:14;16.60;99.90
46319;DHT22;32042;50.916;2.926;2023-05-20T08:20:40;16.60;99.90
46319;DHT22;32042;50.916;2.926;2023-05-20T08:23:07;16.60;99.90
46319;DHT22;32042;50.916;2.926;2023-05-20T08:25:33;16.70;99.90
46319;DHT22;32042;50.916;2.926;2023-05-20T08:28:01;16.70;99.90
46319;DHT22;32042;50.916;2.926;2023-05-20T08:30:32;16.80;99.90
46319;DHT22;32042;50.916;2.926;2023-05-20T08:32:59;16.90;99.90
46319;DHT22;32042;50.916;2.926;2023-05-20T08:35:25;17.10;99.90
46319;DHT22;32042;50.916;2.926;2023-05-20T08:37:51;17.10;99.90
46319;DHT22;32042;50.916;2.926;2023-05-20T08:40:20;17.30;99.90
46319;DHT22;32042;50.916;2.926;2023-05-20T08:42:49;17.40;99.90
46319;DHT22;32042;50.916;2.926;2023-05-20T08:45:19;17.60;99.90
46319;DHT22;32042;50.916;2.926;2023-05-20T08:47:45;17.60;99.90
46319;DHT22;32042;50.916;2.926;2023-05-20T08:52:45;17.80;99.90
46319;DHT22;32042;50.916;2.926;2023-05-20T08:55:17;17.90;99.90
46319;DHT22;32042;50.916;2.926;2023-05-20T08:57:50;17.90;99.90
46319;DHT22;32042;50.916;2.926;2023-05-20T09:00:16;18.10;99.90
46319;DHT22;32042;50.916;2.926;2023-05-20T09:02:44;18.10;99.90
46319;DHT22;32042;50.916;2.926;2023-05-20T09:05:10;18.20;99.90
46319;DHT22;32042;50.916;2.926;2023-05-20T09:07:36;18.40;99.90
46319;DHT22;32042;50.916;2.926;2023-05-20T09:10:04;18.40;99.90
46319;DHT22;32042;50.916;2.926;2023-05-20T09:12:31;18.40;99.90
46319;DHT22;32042;50.916;2.926;2023-05-20T09:14:57;18.60;99.90
46319;DHT22;32042;50.916;2.926;2023-05-20T09:17:23;18.60;99.90
46319;DHT22;32042;50.916;2.926;2023-05-20T09:19:49;18.60;99.90
46319;DHT22;32042;50.916;2.926;2023-05-20T09:22:27;18.70;99.90
46319;DHT22;32042;50.916;2.926;2023-05-20T09:24:53;18.90;99.90
46319;DHT22;32042;50.916;2.926;2023-05-20T09:27:20;18.80;99.90
46319;DHT22;32042;50.916;2.926;2023-05-20T09:29:50;18.80;99.90
46319;DHT22;32042;50.916;2.926;2023-05-20T09:32:17;18.90;99.90
46319;DHT22;32042;50.916;2.926;2023-05-20T09:34:46;18.90;99.90
46319;DHT22;32042;50.916;2.926;2023-05-20T09:37:13;18.90;99.90
46319;DHT22;32042;50.916;2.926;2023-05-20T09:39:49;18.90;99.90
46319;DHT22;32042;50.916;2.926;2023-05-20T09:42:24;18.70;99.90
46319;DHT22;32042;50.916;2.926;2023-05-20T09:44:54;18.80;99.90
46319;DHT22;32042;50.916;2.926;2023-05-20T09:47:22;18.90;99.90
46319;DHT22;32042;50.916;2.926;2023-05-20T09:49:51;18.90;99.90
46319;DHT22;32042;50.916;2.926;2023-05-20T09:52:18;18.90;99.90
46319;DHT22;32042;50.916;2.926;2023-05-20T09:54:44;18.80;99.90
46319;DHT22;32042;50.916;2.926;2023-05-20T09:57:10;18.80;99.90
46319;DHT22;32042;50.916;2.926;2023-05-20T09:59:37;18.90;99.90
46319;DHT22;32042;50.916;2.926;2023-05-20T10:02:05;19.10;99.90
46319;DHT22;32042;50.916;2.926;2023-05-20T10:04:36;19.20;99.90
46319;DHT22;32042;50.916;2.926;2023-05-20T10:08:16;19.10;99.90
46319;DHT22;32042;50.916;2.926;2023-05-20T10:10:18;19.30;99.90
46319;DHT22;32042;50.916;2.926;2023-05-20T10:21:00;19.40;99.90
46319;DHT22;32042;50.916;2.926;2023-05-20T10:23:29;19.40;99.90
46319;DHT22;32042;50.916;2.926;2023-05-20T10:25:56;19.40;99.90
46319;DHT22;32042;50.916;2.926;2023-05-20T10:28:33;19.50;99.90
46319;DHT22;32042;50.916;2.926;2023-05-20T10:31:21;19.40;99.90
46319;DHT22;32042;50.916;2.926;2023-05-20T10:33:50;19.30;99.90
46319;DHT22;32042;50.916;2.926;2023-05-20T10:36:26;19.30;99.90
46319;DHT22;32042;50.916;2.926;2023-05-20T10:38:54;19.50;99.90
46319;DHT22;32042;50.916;2.926;2023-05-20T10:41:22;19.70;99.90
46319;DHT22;32042;50.916;2.926;2023-05-20T10:43:59;19.80;99.90
46319;DHT22;32042;50.916;2.926;2023-05-20T10:46:25;19.70;99.90
46319;DHT22;32042;50.916;2.926;2023-05-20T10:48:50;19.60;99.90
46319;DHT22;32042;50.916;2.926;2023-05-20T10:51:16;19.40;99.90
46319;DHT22;32042;50.916;2.926;2023-05-20T10:53:45;19.30;99.90
46319;DHT22;32042;50.916;2.926;2023-05-20T10:56:19;19.20;99.90
46319;DHT22;32042;50.916;2.926;2023-05-20T10:58:49;19.20;99.90
46319;DHT22;32042;50.916;2.926;2023-05-20T11:01:16;19.40;99.90
46319;DHT22;32042;50.916;2.926;2023-05-20T11:03:44;19.50;99.90
46319;DHT22;32042;50.916;2.926;2023-05-20T11:06:13;19.70;99.90
46319;DHT22;32042;50.916;2.926;2023-05-20T11:08:38;20.00;99.90
46319;DHT22;32042;50.916;2.926;2023-05-20T11:13:30;20.30;99.90
46319;DHT22;32042;50.916;2.926;2023-05-20T11:15:56;20.70;99.90
46319;DHT22;32042;50.916;2.926;2023-05-20T11:18:26;20.70;99.90
46319;DHT22;32042;50.916;2.926;2023-05-20T11:20:58;20.50;99.90
46319;DHT22;32042;50.916;2.926;2023-05-20T11:23:25;20.60;99.90
46319;DHT22;32042;50.916;2.926;2023-05-20T11:25:53;20.70;99.90
46319;DHT22;32042;50.916;2.926;2023-05-20T11:28:19;20.40;99.90
46319;DHT22;32042;50.916;2.926;2023-05-20T11:30:46;20.30;99.90
46319;DHT22;32042;50.916;2.926;2023-05-20T11:33:13;20.30;99.90
46319;DHT22;32042;50.916;2.926;2023-05-20T11:35:51;20.40;99.90
46319;DHT22;32042;50.916;2.926;2023-05-20T11:38:18;20.30;99.90
46319;DHT22;32042;50.916;2.926;2023-05-20T11:40:45;20.40;99.90
46319;DHT22;32042;50.916;2.926;2023-05-20T11:43:13;20.60;99.90
46319;DHT22;32042;50.916;2.926;2023-05-20T11:45:59;20.50;99.90
46319;DHT22;32042;50.916;2.926;2023-05-20T11:48:25;20.10;99.90
46319;DHT22;32042;50.916;2.926;2023-05-20T11:50:54;19.80;99.90
46319;DHT22;32042;50.916;2.926;2023-05-20T11:53:21;19.90;99.90
46319;DHT22;32042;50.916;2.926;2023-05-20T11:55:54;19.90;99.90
46319;DHT22;32042;50.916;2.926;2023-05-20T11:58:32;20.10;99.90
46319;DHT22;32042;50.916;2.926;2023-05-20T12:00:58;20.20;99.90
46319;DHT22;32042;50.916;2.926;2023-05-20T12:03:24;20.30;99.90
46319;DHT22;32042;50.916;2.926;2023-05-20T12:05:50;20.50;99.90
46319;DHT22;32042;50.916;2.926;2023-05-20T12:08:17;20.60;99.90
46319;DHT22;32042;50.916;2.926;2023-05-20T12:10:43;20.50;99.90
46319;DHT22;32042;50.916;2.926;2023-05-20T12:13:09;20.60;99.90
46319;DHT22;32042;50.916;2.926;2023-05-20T12:15:37;20.70;99.90
46319;DHT22;32042;50.916;2.926;2023-05-20T12:18:03;20.80;99.90
46319;DHT22;32042;50.916;2.926;2023-05-20T12:20:30;20.80;99.90
46319;DHT22;32042;50.916;2.926;2023-05-20T12:22:58;20.70;99.90
46319;DHT22;32042;50.916;2.926;2023-05-20T12:25:26;20.50;99.90
46319;DHT22;32042;50.916;2.926;2023-05-20T12:27:52;20.30;99.90
46319;DHT22;32042;50.916;2.926;2023-05-20T12:30:19;20.20;99.90
46319;DHT22;32042;50.916;2.926;2023-05-20T12:32:47;20.30;99.90
46319;DHT22;32042;50.916;2.926;2023-05-20T12:35:14;20.50;99.90
46319;DHT22;32042;50.916;2.926;2023-05-20T12:37:41;20.50;99.90
46319;DHT22;32042;50.916;2.926;2023-05-20T12:40:08;20.60;99.90
46319;DHT22;32042;50.916;2.926;2023-05-20T12:42:39;20.80;99.90
46319;DHT22;32042;50.916;2.926;2023-05-20T12:45:05;20.50;99.90
46319;DHT22;32042;50.916;2.926;2023-05-20T12:47:32;20.40;99.90
46319;DHT22;32042;50.916;2.926;2023-05-20T12:49:59;20.20;99.90
46319;DHT22;32042;50.916;2.926;2023-05-20T12:52:25;20.30;99.90
46319;DHT22;32042;50.916;2.926;2023-05-20T12:54:53;20.50;99.90
46319;DHT22;32042;50.916;2.926;2023-05-20T12:57:19;20.80;99.90
46319;DHT22;32042;50.916;2.926;2023-05-20T12:59:45;20.90;99.90
46319;DHT22;32042;50.916;2.926;2023-05-20T13:02:10;20.70;99.90
46319;DHT22;32042;50.916;2.926;2023-05-20T13:04:36;20.50;99.90
46319;DHT22;32042;50.916;2.926;2023-05-20T13:07:02;20.40;99.90
46319;DHT22;32042;50.916;2.926;2023-05-20T13:09:28;20.40;99.90
46319;DHT22;32042;50.916;2.926;2023-05-20T13:11:54;20.30;99.90
46319;DHT22;32042;50.916;2.926;2023-05-20T13:14:20;20.20;99.90
46319;DHT22;32042;50.916;2.926;2023-05-20T13:16:48;20.20;99.90
46319;DHT22;32042;50.916;2.926;2023-05-20T13:19:13;20.20;99.90
46319;DHT22;32042;50.916;2.926;2023-05-20T13:21:39;20.20;99.90
46319;DHT22;32042;50.916;2.926;2023-05-20T13:24:05;20.40;99.90
46319;DHT22;32042;50.916;2.926;2023-05-20T13:26:31;20.40;99.90
46319;DHT22;32042;50.916;2.926;2023-05-20T13:28:57;20.20;99.90
46319;DHT22;32042;50.916;2.926;2023-05-20T13:31:23;19.50;99.90
46319;DHT22;32042;50.916;2.926;2023-05-20T13:33:48;20.20;99.90
46319;DHT22;32042;50.916;2.926;2023-05-20T13:36:14;20.30;99.90
46319;DHT22;32042;50.916;2.926;2023-05-20T13:38:40;20.30;99.90
46319;DHT22;32042;50.916;2.926;2023-05-20T13:41:06;20.40;99.90
46319;DHT22;32042;50.916;2.926;2023-05-20T13:43:32;20.40;99.90
46319;DHT22;32042;50.916;2.926;2023-05-20T13:45:58;20.20;99.90
46319;DHT22;32042;50.916;2.926;2023-05-20T13:48:23;20.10;99.90
46319;DHT22;32042;50.916;2.926;2023-05-20T13:50:49;20.20;99.90
46319;DHT22;32042;50.916;2.926;2023-05-20T13:53:15;20.40;99.90
46319;DHT22;32042;50.916;2.926;2023-05-20T13:55:41;20.50;99.90
46319;DHT22;32042;50.916;2.926;2023-05-20T13:58:06;20.50;99.90
46319;DHT22;32042;50.916;2.926;2023-05-20T14:00:36;20.50;99.90
46319;DHT22;32042;50.916;2.926;2023-05-20T14:03:03;20.50;99.90
46319;DHT22;32042;50.916;2.926;2023-05-20T14:05:32;20.50;99.90
46319;DHT22;32042;50.916;2.926;2023-05-20T14:07:59;20.50;99.90
46319;DHT22;32042;50.916;2.926;2023-05-20T14:10:25;20.30;99.90
46319;DHT22;32042;50.916;2.926;2023-05-20T14:12:56;20.30;99.90
46319;DHT22;32042;50.916;2.926;2023-05-20T14:15:22;20.40;99.90
46319;DHT22;32042;50.916;2.926;2023-05-20T14:17:48;20.50;99.90
46319;DHT22;32042;50.916;2.926;2023-05-20T14:20:15;20.40;99.90
46319;DHT22;32042;50.916;2.926;2023-05-20T14:22:41;20.30;99.90
46319;DHT22;32042;50.916;2.926;2023-05-20T14:25:07;20.10;99.90
46319;DHT22;32042;50.916;2.926;2023-05-20T14:27:33;20.20;99.90
46319;DHT22;32042;50.916;2.926;2023-05-20T14:29:59;20.40;99.90
46319;DHT22;32042;50.916;2.926;2023-05-20T14:32:25;20.40;99.90
46319;DHT22;32042;50.916;2.926;2023-05-20T14:34:51;20.20;99.90
46319;DHT22;32042;50.916;2.926;2023-05-20T14:37:18;20.10;99.90
46319;DHT22;32042;50.916;2.926;2023-05-20T14:39:44;20.10;99.90
46319;DHT22;32042;50.916;2.926;2023-05-20T14:42:10;20.20;99.90
46319;DHT22;32042;50.916;2.926;2023-05-20T14:44:36;20.30;99.90
46319;DHT22;32042;50.916;2.926;2023-05-20T14:47:02;20.20;99.90
46319;DHT22;32042;50.916;2.926;2023-05-20T14:49:28;20.30;99.90
46319;DHT22;32042;50.916;2.926;2023-05-20T14:51:54;20.20;99.90
46319;DHT22;32042;50.916;2.926;2023-05-20T14:54:21;20.10;99.90
46319;DHT22;32042;50.916;2.926;2023-05-20T14:56:51;20.00;99.90
46319;DHT22;32042;50.916;2.926;2023-05-20T14:59:17;20.00;99.90
46319;DHT22;32042;50.916;2.926;2023-05-20T15:01:43;20.00;99.90
46319;DHT22;32042;50.916;2.926;2023-05-20T15:04:09;20.00;99.90
46319;DHT22;32042;50.916;2.926;2023-05-20T15:06:36;20.00;99.90
46319;DHT22;32042;50.916;2.926;2023-05-20T15:09:04;20.10;99.90
46319;DHT22;32042;50.916;2.926;2023-05-20T15:11:30;20.10;99.90
46319;DHT22;32042;50.916;2.926;2023-05-20T15:13:56;20.00;99.90
46319;DHT22;32042;50.916;2.926;2023-05-20T15:16:23;20.00;99.90
46319;DHT22;32042;50.916;2.926;2023-05-20T15:18:50;19.90;99.90
46319;DHT22;32042;50.916;2.926;2023-05-20T15:21:16;19.90;99.90
46319;DHT22;32042;50.916;2.926;2023-05-20T15:23:42;19.90;99.90
46319;DHT22;32042;50.916;2.926;2023-05-20T15:26:07;19.90;99.90
46319;DHT22;32042;50.916;2.926;2023-05-20T15:28:36;19.90;99.90
46319;DHT22;32042;50.916;2.926;2023-05-20T15:31:02;19.80;99.90
46319;DHT22;32042;50.916;2.926;2023-05-20T15:33:28;19.60;99.90
46319;DHT22;32042;50.916;2.926;2023-05-20T15:35:54;19.60;99.90
46319;DHT22;32042;50.916;2.926;2023-05-20T15:38:20;19.60;99.90
46319;DHT22;32042;50.916;2.926;2023-05-20T15:40:45;19.60;99.90
46319;DHT22;32042;50.916;2.926;2023-05-20T15:43:14;19.60;99.90
46319;DHT22;32042;50.916;2.926;2023-05-20T15:45:40;19.50;99.90